• Join FlightAware (Why Join?)
  • Login
  • US Flag 
 
06:05PM EST


 

Airport Tracker/Info


-or-


 

Live Flight TrackerFlight Track Log ✈ THY2476 ✈ 02-May-2013 ✈ LTBA / IST - LTAF / ADA

Flight Track Log - Related Links

Times and Time Zones

All times are in EDT time to prevent confusion due to time zone crossing. See the THY2476 flight status page for this flight to view local times or setup timezone preferences in your user account.

Time Position Orientation Groundspeed Altitude Reporting Facility
EDT Latitude Longitude Course Direction KTS MPH feet Rate Location/Type
06:53PM 40.1415 30.2849 126° Southeast  Level Estimated
06:54PM 40.0765 30.3960 127° Southeast  Level Estimated
06:55PM 40.0114 30.5068 127° Southeast  Level Estimated
06:56PM 39.9462 30.6175 128° Southeast  Level Estimated
06:57PM 39.8809 30.7280 128° Southeast  Level Estimated
06:58PM 39.8154 30.8382 128° Southeast  Level Estimated
06:59PM 39.7499 30.9483 128° Southeast  Level Estimated
07:00PM 39.6842 31.0581 128° Southeast  Level Estimated
07:01PM 39.6185 31.1677 128° Southeast  Level Estimated
07:02PM 39.5526 31.2771 128° Southeast  Level Estimated
07:03PM 39.4867 31.3863 128° Southeast  Level Estimated
07:04PM 39.4206 31.4953 128° Southeast  Level Estimated
07:05PM 39.3545 31.6041 128° Southeast  Level Estimated
07:06PM 39.2882 31.7127 128° Southeast  Level Estimated
07:07PM 39.2219 31.8211 128° Southeast  Level Estimated
07:08PM 39.1554 31.9292 128° Southeast  Level Estimated
07:09PM 39.0888 32.0372 128° Southeast  Level Estimated
07:10PM 39.0222 32.1450 129° Southeast  Level Estimated
07:11PM 38.9554 32.2525 129° Southeast  Level Estimated
07:12PM 38.8886 32.3599 129° Southeast  Level Estimated
07:13PM 38.8216 32.4671 129° Southeast  Level Estimated
07:14PM 38.7546 32.5740 129° Southeast  Level Estimated
07:15PM 38.6874 32.6808 129° Southeast  Level Estimated
07:16PM 38.6202 32.7873 129° Southeast  Level Estimated
07:17PM 38.5528 32.8937 129° Southeast  Level Estimated
07:18PM 38.4854 32.9999 129° Southeast  Level Estimated
07:19PM 38.4179 33.1058 129° Southeast  Level Estimated
07:20PM 38.3502 33.2116 129° Southeast  Level Estimated
07:21PM 38.2825 33.3171 129° Southeast  Level Estimated
07:22PM 38.2147 33.4225 129° Southeast  Level Estimated
07:23PM 38.1468 33.5277 129° Southeast  Level Estimated
07:24PM 38.0788 33.6326 129° Southeast  Level Estimated
07:25PM 38.0107 33.7374 129° Southeast  Level Estimated
07:26PM 37.9425 33.8420 130° Southeast  Level Estimated
07:27PM 37.8742 33.9464 130° Southeast  Level Estimated
07:28PM 37.8058 34.0506 130° Southeast  Level Estimated
07:29PM 37.7374 34.1546 130° Southeast  Level Estimated
07:30PM 37.6688 34.2584 130° Southeast  Level Estimated
07:31PM 37.6002 34.3620 130° Southeast  Level Estimated
07:32PM 37.5314 34.4655 130° Southeast  Level Estimated
07:33PM 37.4626 34.5687 130° Southeast  Level Estimated
07:34PM 37.3937 34.6717 130° Southeast  Level Estimated
07:35PM 37.3246 34.7746 130° Southeast  Level Estimated
07:36PM 37.2556 34.8773 130° Southeast  Level Estimated
07:37PM 37.1864 34.9798 130° Southeast  Level Estimated
07:38PM 37.1171 35.0821 130° Southeast  Level Estimated
07:39PM 37.0477 35.1842 130° Southeast  Level Estimated
07:40PM 36.9822 35.2804 130° Southeast  Level Estimated
07:41PM 36.9822 35.2804 202° Southwest  Level Estimated
07:42PM 36.9822 35.2804 202° Southwest  Level Estimated
07:43PM 36.9822 35.2804 202° Southwest  Level Estimated
07:44PM 36.9822 35.2804 202° Southwest  Level Estimated
07:45PM 36.9822 35.2804 202° Southwest  Level Estimated
07:46PM 36.9822 35.2804 202° Southwest  Level Estimated
07:47PM 36.9822 35.2804 202° Southwest  Level Estimated
07:48PM 36.9822 35.2804 202° Southwest  Level Estimated
07:49PM 36.9822 35.2804 202° Southwest  Level Estimated
07:50PM 36.9822 35.2804 202° Southwest  Level Estimated
07:51PM 36.9822 35.2804 202° Southwest  Level Estimated
07:52PM 36.9822 35.2804 202° Southwest  Level Estimated
07:53PM 36.9822 35.2804 202° Southwest  Level Estimated
07:54PM 36.9822 35.2804 202° Southwest  Level Estimated
07:55PM 36.9822 35.2804 202° Southwest  Level Estimated
07:56PM 36.9822 35.2804 202° Southwest  Level Estimated